createdAt,value
2022-09-02T00:01:24.460Z,98.10
2022-09-02T00:03:56.084Z,98.00
2022-09-02T00:06:23.522Z,98.40
2022-09-02T00:08:51.293Z,98.30
2022-09-02T00:11:21.769Z,98.30
2022-09-02T00:13:49.599Z,98.30
2022-09-02T00:16:17.417Z,98.40
2022-09-02T00:18:45.999Z,98.20
2022-09-02T00:21:14.530Z,98.30
2022-09-02T00:23:43.342Z,98.30
2022-09-02T00:26:12.080Z,98.50
2022-09-02T00:28:40.625Z,98.60
2022-09-02T00:31:17.475Z,98.60
2022-09-02T00:33:45.022Z,98.80
2022-09-02T00:36:12.854Z,99.00
2022-09-02T00:38:40.220Z,99.20
2022-09-02T00:41:10.609Z,99.20
2022-09-02T00:44:07.628Z,99.20
2022-09-02T00:46:36.511Z,99.10
2022-09-02T00:49:16.683Z,99.50
2022-09-02T00:52:02.240Z,99.50
2022-09-02T00:54:32.578Z,99.60
2022-09-02T00:57:03.201Z,99.80
2022-09-02T00:59:50.337Z,99.70
2022-09-02T01:02:17.779Z,99.80
2022-09-02T01:04:46.617Z,99.50
2022-09-02T01:07:16.034Z,99.40
2022-09-02T01:09:43.386Z,99.20
2022-09-02T01:12:12.918Z,99.10
2022-09-02T01:14:40.374Z,99.20
2022-09-02T01:17:07.982Z,99.30
2022-09-02T01:19:47.689Z,99.50
2022-09-02T01:22:28.836Z,99.40
2022-09-02T01:25:08.722Z,99.40
2022-09-02T01:27:36.748Z,99.50
2022-09-02T01:30:07.299Z,99.40
2022-09-02T01:32:35.299Z,99.50
2022-09-02T01:35:02.674Z,99.60
2022-09-02T01:37:31.454Z,99.70
2022-09-02T01:39:59.072Z,99.80
2022-09-02T01:42:26.589Z,99.90
2022-09-02T01:44:54.287Z,99.90
2022-09-02T01:47:25.413Z,99.90
2022-09-02T01:49:53.295Z,99.90
2022-09-02T01:52:23.815Z,99.90
2022-09-02T01:54:51.812Z,99.90
2022-09-02T01:57:19.787Z,99.90
2022-09-02T01:59:46.992Z,99.90
2022-09-02T02:02:20.116Z,99.90
2022-09-02T02:04:48.614Z,99.90
2022-09-02T02:07:19.547Z,99.90
2022-09-02T02:09:47.061Z,99.90
2022-09-02T02:12:16.412Z,99.90
2022-09-02T02:14:43.831Z,99.90
2022-09-02T02:17:11.614Z,99.90
2022-09-02T02:19:40.622Z,99.90
2022-09-02T02:22:07.982Z,99.90
2022-09-02T02:24:35.226Z,99.90
2022-09-02T02:27:02.803Z,99.90
2022-09-02T02:29:30.634Z,99.90
2022-09-02T02:31:59.102Z,99.90
2022-09-02T02:34:26.502Z,99.90
2022-09-02T02:36:54.121Z,99.90
2022-09-02T02:39:22.063Z,99.90
2022-09-02T02:41:49.346Z,99.90
2022-09-02T02:44:17.358Z,99.90
2022-09-02T02:46:45.165Z,99.90
2022-09-02T02:49:13.199Z,99.90
2022-09-02T02:51:42.241Z,99.90
2022-09-02T02:54:10.446Z,99.90
2022-09-02T02:56:38.000Z,99.90
2022-09-02T02:59:05.436Z,99.90
2022-09-02T03:01:34.768Z,99.90
2022-09-02T03:04:04.160Z,99.90
2022-09-02T03:06:32.279Z,99.90
2022-09-02T03:09:00.600Z,99.90
2022-09-02T03:11:28.557Z,99.90
2022-09-02T03:13:56.905Z,99.90
2022-09-02T03:16:24.938Z,99.90
2022-09-02T03:18:53.936Z,99.90
2022-09-02T03:21:21.533Z,99.90
2022-09-02T03:23:48.756Z,99.90
2022-09-02T03:26:19.766Z,99.90
2022-09-02T03:28:49.392Z,99.90
2022-09-02T03:31:20.057Z,99.90
2022-09-02T03:33:47.629Z,99.90
2022-09-02T03:36:25.900Z,99.90
2022-09-02T03:38:54.376Z,99.90
2022-09-02T03:41:22.431Z,99.90
2022-09-02T03:43:49.789Z,99.90
2022-09-02T03:46:17.871Z,99.90
2022-09-02T03:48:45.965Z,99.90
2022-09-02T03:51:14.114Z,99.90
2022-09-02T03:53:42.162Z,99.90
2022-09-02T03:56:15.348Z,99.90
2022-09-02T03:58:48.079Z,99.90
2022-09-02T04:01:22.501Z,99.90
2022-09-02T04:03:51.513Z,99.90
2022-09-02T04:06:21.921Z,99.90
2022-09-02T04:08:49.788Z,99.90
2022-09-02T04:11:20.096Z,99.90
2022-09-02T04:13:51.838Z,99.90
2022-09-02T04:16:28.795Z,99.90
2022-09-02T04:19:01.880Z,99.90
2022-09-02T04:21:32.238Z,99.90
2022-09-02T04:24:00.122Z,99.90
2022-09-02T04:26:28.507Z,99.90
2022-09-02T04:28:57.434Z,99.90
2022-09-02T04:31:26.357Z,99.90
2022-09-02T04:33:54.693Z,99.90
2022-09-02T04:36:22.695Z,99.90
2022-09-02T04:38:54.755Z,99.90
2022-09-02T04:41:28.345Z,99.90
2022-09-02T04:43:59.545Z,99.90
2022-09-02T04:46:34.464Z,99.90
2022-09-02T04:49:04.723Z,99.90
2022-09-02T04:51:33.227Z,99.90
2022-09-02T04:54:02.143Z,99.90
2022-09-02T04:56:32.111Z,99.90
2022-09-02T04:59:01.067Z,99.90
2022-09-02T05:01:33.198Z,99.90
2022-09-02T05:04:09.406Z,99.90
2022-09-02T05:06:44.151Z,99.90
2022-09-02T05:09:16.746Z,99.90
2022-09-02T05:11:47.941Z,99.90
2022-09-02T05:14:16.310Z,99.90
2022-09-02T05:16:45.586Z,99.90
2022-09-02T05:19:15.640Z,99.90
2022-09-02T05:21:47.410Z,99.90
2022-09-02T05:24:26.919Z,99.90
2022-09-02T05:26:56.036Z,99.90
2022-09-02T05:29:24.503Z,99.90
2022-09-02T05:31:52.465Z,99.90
2022-09-02T05:34:22.481Z,99.90
2022-09-02T05:36:51.915Z,99.90
2022-09-02T05:39:19.543Z,99.90
2022-09-02T05:41:47.792Z,99.90
2022-09-02T05:44:16.171Z,99.90
2022-09-02T05:46:48.547Z,99.90
2022-09-02T05:49:21.327Z,99.90
2022-09-02T05:51:56.727Z,99.90
2022-09-02T05:54:33.146Z,99.90
2022-09-02T05:57:09.066Z,99.90
2022-09-02T05:59:42.272Z,99.90
2022-09-02T06:02:14.712Z,99.90
2022-09-02T06:04:48.202Z,99.90
2022-09-02T06:07:18.063Z,99.90
2022-09-02T06:09:47.815Z,99.90
2022-09-02T06:12:20.095Z,99.90
2022-09-02T06:14:48.660Z,99.90
2022-09-02T06:17:19.286Z,99.90
2022-09-02T06:19:52.663Z,99.90
2022-09-02T06:22:22.602Z,99.90
2022-09-02T06:24:49.919Z,99.90
2022-09-02T06:27:21.627Z,99.90
2022-09-02T06:29:52.219Z,99.90
2022-09-02T06:32:21.907Z,99.90
2022-09-02T06:34:51.555Z,99.90
2022-09-02T06:37:18.772Z,99.90
2022-09-02T06:39:46.618Z,99.90
2022-09-02T06:42:19.426Z,99.90
2022-09-02T06:45:07.613Z,99.90
2022-09-02T06:47:35.339Z,99.90
2022-09-02T06:50:03.156Z,99.90
2022-09-02T06:52:30.860Z,99.90
2022-09-02T06:54:58.431Z,99.90
2022-09-02T06:57:32.180Z,99.90
2022-09-02T07:00:10.108Z,99.90
2022-09-02T07:02:37.999Z,99.90
2022-09-02T07:05:15.220Z,99.90
2022-09-02T07:07:46.151Z,99.90
2022-09-02T07:10:15.641Z,99.90
2022-09-02T07:12:47.949Z,99.90
2022-09-02T07:15:17.343Z,99.90
2022-09-02T07:17:45.018Z,99.90
2022-09-02T07:20:22.019Z,99.90
2022-09-02T07:22:56.680Z,99.90
2022-09-02T07:25:25.905Z,99.90
2022-09-02T07:27:54.518Z,99.90
2022-09-02T07:30:22.972Z,99.90
2022-09-02T07:32:56.619Z,99.90
2022-09-02T07:35:25.942Z,99.90
2022-09-02T07:37:53.370Z,99.90
2022-09-02T07:40:23.494Z,99.90
2022-09-02T07:42:51.664Z,99.90
2022-09-02T07:45:20.450Z,99.90
2022-09-02T07:47:49.363Z,99.90
2022-09-02T07:50:20.303Z,99.90
2022-09-02T07:52:57.667Z,99.90
2022-09-02T07:55:26.672Z,99.90
2022-09-02T07:57:55.567Z,99.90
2022-09-02T08:00:27.538Z,99.90
2022-09-02T08:02:57.010Z,99.90
2022-09-02T08:05:30.819Z,99.90
2022-09-02T08:07:58.396Z,99.40
2022-09-02T08:10:27.119Z,99.10
2022-09-02T08:12:54.467Z,99.40
2022-09-02T08:15:22.626Z,99.30
2022-09-02T08:17:50.135Z,99.10
2022-09-02T08:20:17.811Z,97.70
2022-09-02T08:22:48.871Z,97.40
2022-09-02T08:25:23.271Z,97.30
2022-09-02T08:27:50.744Z,97.10
2022-09-02T08:30:18.156Z,97.40
2022-09-02T08:32:45.387Z,97.50
2022-09-02T08:35:12.712Z,97.50
2022-09-02T08:37:39.930Z,97.40
2022-09-02T08:40:13.157Z,97.90
2022-09-02T08:42:55.446Z,97.50
2022-09-02T08:45:32.392Z,97.50
2022-09-02T08:48:21.404Z,97.00
2022-09-02T08:50:52.807Z,96.90
2022-09-02T08:53:36.431Z,96.30
2022-09-02T08:56:06.124Z,96.20
2022-09-02T08:58:42.570Z,96.50
2022-09-02T09:01:18.217Z,96.00
2022-09-02T09:04:12.598Z,95.90
2022-09-02T09:06:53.866Z,95.30
2022-09-02T09:09:45.143Z,93.60
2022-09-02T09:12:33.370Z,92.70
2022-09-02T09:15:25.313Z,91.40
2022-09-02T09:18:07.408Z,89.40
2022-09-02T09:20:39.887Z,86.50
2022-09-02T09:23:25.500Z,85.90
2022-09-02T09:25:58.481Z,82.90
2022-09-02T09:28:25.801Z,80.60
2022-09-02T09:30:53.545Z,78.10
2022-09-02T09:33:22.925Z,76.90
2022-09-02T09:35:55.349Z,75.30
2022-09-02T09:38:49.011Z,73.60
2022-09-02T09:41:24.752Z,72.10
2022-09-02T09:43:52.321Z,71.80
2022-09-02T09:46:32.188Z,71.00
2022-09-02T09:48:59.781Z,69.00
2022-09-02T09:51:27.204Z,68.20
2022-09-02T09:54:15.560Z,67.60
2022-09-02T09:56:42.831Z,64.80
2022-09-02T09:59:35.933Z,64.50
2022-09-02T10:02:03.328Z,64.70
2022-09-02T10:04:43.300Z,64.60
2022-09-02T10:07:13.304Z,64.10
2022-09-02T10:09:40.779Z,64.30
2022-09-02T10:12:12.410Z,64.60
2022-09-02T10:14:45.905Z,62.00
2022-09-02T10:17:19.219Z,62.90
2022-09-02T10:19:55.073Z,60.50
2022-09-02T10:22:59.789Z,60.60
2022-09-02T10:26:12.746Z,60.80
2022-09-02T10:28:51.958Z,60.70
2022-09-02T10:31:36.748Z,60.00
2022-09-02T10:34:40.081Z,59.50
2022-09-02T10:37:14.595Z,59.40
2022-09-02T10:40:00.395Z,59.10
2022-09-02T10:42:55.307Z,57.90
2022-09-02T10:45:46.064Z,58.80
2022-09-02T10:48:29.836Z,57.80
2022-09-02T10:51:15.350Z,56.80
2022-09-02T10:53:54.985Z,55.30
2022-09-02T10:56:26.889Z,56.10
2022-09-02T10:59:03.457Z,54.50
2022-09-02T11:01:37.945Z,53.20
2022-09-02T11:04:22.699Z,54.00
2022-09-02T11:07:02.963Z,53.90
2022-09-02T11:09:46.001Z,54.10
2022-09-02T11:12:40.527Z,53.30
2022-09-02T11:15:17.001Z,52.80
2022-09-02T11:18:04.454Z,52.20
2022-09-02T11:21:01.030Z,50.70
2022-09-02T11:23:34.531Z,50.80
2022-09-02T11:26:27.631Z,51.60
2022-09-02T11:29:13.910Z,51.60
2022-09-02T11:31:51.759Z,52.40
2022-09-02T11:34:35.985Z,51.20
2022-09-02T11:37:11.302Z,51.00
2022-09-02T11:39:59.201Z,49.80
2022-09-02T11:42:43.267Z,48.60
2022-09-02T11:45:44.274Z,47.90
2022-09-02T11:48:29.515Z,46.30
2022-09-02T11:50:56.802Z,46.30
2022-09-02T11:53:37.237Z,46.50
2022-09-02T11:56:19.749Z,47.90
2022-09-02T11:58:52.552Z,47.80
2022-09-02T12:01:31.598Z,47.70
2022-09-02T12:04:58.673Z,48.50
2022-09-02T12:07:26.435Z,48.40
2022-09-02T12:09:56.082Z,47.40
2022-09-02T12:12:39.502Z,47.70
2022-09-02T12:15:07.358Z,46.90
2022-09-02T12:17:40.696Z,46.70
2022-09-02T12:20:11.892Z,45.20
2022-09-02T12:22:40.646Z,45.50
2022-09-02T12:25:33.955Z,45.00
2022-09-02T12:28:25.829Z,44.00
2022-09-02T12:30:56.445Z,44.00
2022-09-02T12:33:31.603Z,43.70
2022-09-02T12:35:59.728Z,44.00
2022-09-02T12:38:30.102Z,43.90
2022-09-02T12:41:13.131Z,42.80
2022-09-02T12:44:18.523Z,42.40
2022-09-02T12:46:55.357Z,42.30
2022-09-02T12:49:42.615Z,43.10
2022-09-02T12:52:12.503Z,43.10
2022-09-02T12:54:39.635Z,43.20
2022-09-02T12:57:08.683Z,42.20
2022-09-02T12:59:39.174Z,43.10
2022-09-02T13:02:32.385Z,44.20
2022-09-02T13:05:16.338Z,43.80
2022-09-02T13:08:18.862Z,44.50
2022-09-02T13:10:59.519Z,46.20
2022-09-02T13:14:07.107Z,46.40
2022-09-02T13:17:32.672Z,45.30
2022-09-02T13:20:28.704Z,44.20
2022-09-02T13:23:17.785Z,43.90
2022-09-02T13:26:32.927Z,43.60
2022-09-02T13:29:24.884Z,42.50
2022-09-02T13:32:14.227Z,42.10
2022-09-02T13:34:47.459Z,43.90
2022-09-02T13:37:31.105Z,45.00
2022-09-02T13:39:59.514Z,44.70
2022-09-02T13:42:32.876Z,43.90
2022-09-02T13:45:24.251Z,43.60
2022-09-02T13:47:56.943Z,44.70
2022-09-02T13:50:29.991Z,45.60
2022-09-02T13:55:54.582Z,46.10
2022-09-02T13:58:47.995Z,46.20
2022-09-02T14:01:40.010Z,45.20
2022-09-02T14:04:12.710Z,45.80
2022-09-02T14:06:44.210Z,45.20
2022-09-02T14:09:20.256Z,45.40
2022-09-02T14:11:49.413Z,46.20
2022-09-02T14:14:19.718Z,45.00
2022-09-02T14:16:46.874Z,45.70
2022-09-02T14:19:17.156Z,45.60
2022-09-02T14:21:47.622Z,45.20
2022-09-02T14:24:20.660Z,45.90
2022-09-02T14:26:51.167Z,45.50
2022-09-02T14:29:20.341Z,45.80
2022-09-02T14:32:02.855Z,45.50
2022-09-02T14:34:33.846Z,44.80
2022-09-02T14:37:14.577Z,45.50
2022-09-02T14:40:00.408Z,45.70
2022-09-02T14:42:29.593Z,45.00
2022-09-02T14:44:59.315Z,45.40
2022-09-02T14:47:28.109Z,45.40
2022-09-02T14:49:56.120Z,45.10
2022-09-02T14:52:36.502Z,44.60
2022-09-02T14:55:06.375Z,44.70
2022-09-02T14:57:35.841Z,45.10
2022-09-02T15:00:11.312Z,45.10
2022-09-02T15:02:41.746Z,45.20
2022-09-02T15:05:14.391Z,45.20
2022-09-02T15:07:42.157Z,45.30
2022-09-02T15:10:10.054Z,45.90
2022-09-02T15:12:52.803Z,45.50
2022-09-02T15:15:20.356Z,45.30
2022-09-02T15:17:47.534Z,45.30
2022-09-02T15:20:15.514Z,44.80
2022-09-02T15:22:43.255Z,44.80
2022-09-02T15:25:10.545Z,44.00
2022-09-02T15:27:37.946Z,44.60
2022-09-02T15:30:09.088Z,44.60
2022-09-02T15:32:37.629Z,45.10
2022-09-02T15:35:06.845Z,45.30
2022-09-02T15:37:38.139Z,45.50
2022-09-02T15:40:07.567Z,45.40
2022-09-02T15:42:38.893Z,45.20
2022-09-02T15:45:08.861Z,45.10
2022-09-02T15:47:37.313Z,45.90
2022-09-02T15:50:08.170Z,46.00
2022-09-02T15:52:36.622Z,45.30
2022-09-02T15:55:04.354Z,45.20
2022-09-02T15:57:31.565Z,45.10
2022-09-02T15:59:59.953Z,45.00
2022-09-02T16:02:27.198Z,44.80
2022-09-02T16:04:54.445Z,45.70
2022-09-02T16:07:21.791Z,47.40
2022-09-02T16:09:49.043Z,49.60
2022-09-02T16:12:16.307Z,51.00
2022-09-02T16:14:43.746Z,52.60
2022-09-02T16:17:11.151Z,51.90
2022-09-02T16:19:38.349Z,52.40
2022-09-02T16:22:05.942Z,53.10
2022-09-02T16:24:33.136Z,53.50
2022-09-02T16:27:00.307Z,53.60
2022-09-02T16:29:28.343Z,54.20
2022-09-02T16:32:23.792Z,54.30
2022-09-02T16:34:43.033Z,54.10
2022-09-02T16:37:10.222Z,54.10
2022-09-02T16:39:37.518Z,54.10
2022-09-02T16:42:05.058Z,54.70
2022-09-02T16:44:34.107Z,54.60
2022-09-02T16:47:01.447Z,55.10
2022-09-02T16:49:28.637Z,55.00
2022-09-02T16:51:58.552Z,55.10
2022-09-02T16:54:31.610Z,55.60
2022-09-02T16:57:00.812Z,55.60
2022-09-02T16:59:28.646Z,55.80
2022-09-02T17:01:55.900Z,55.60
2022-09-02T17:04:23.258Z,55.60
2022-09-02T17:06:50.469Z,56.30
2022-09-02T17:09:17.650Z,56.10
2022-09-02T17:11:45.343Z,56.60
2022-09-02T17:14:17.770Z,56.20
2022-09-02T17:16:50.684Z,56.60
2022-09-02T17:19:24.447Z,56.90
2022-09-02T17:21:54.682Z,57.20
2022-09-02T17:24:24.245Z,57.20
2022-09-02T17:26:55.479Z,57.20
2022-09-02T17:32:11.941Z,57.50
2022-09-02T17:34:39.175Z,57.90
2022-09-02T17:37:06.415Z,58.20
2022-09-02T17:39:36.639Z,58.60
2022-09-02T17:42:05.274Z,58.90
2022-09-02T17:44:38.241Z,58.50
2022-09-02T17:47:07.169Z,58.90
2022-09-02T17:49:37.649Z,59.10
2022-09-02T17:52:07.431Z,59.30
2022-09-02T17:54:36.168Z,59.70
2022-09-02T17:57:03.879Z,59.80
2022-09-02T17:59:39.951Z,60.10
2022-09-02T18:02:40.931Z,60.00
2022-09-02T18:05:29.163Z,60.60
2022-09-02T18:08:29.513Z,61.00
2022-09-02T18:11:02.827Z,61.80
2022-09-02T18:13:50.832Z,62.30
2022-09-02T18:16:51.540Z,62.80
2022-09-02T18:19:57.266Z,63.50
2022-09-02T18:22:52.882Z,63.80
2022-09-02T18:25:44.127Z,64.10
2022-09-02T18:28:42.621Z,64.50
2022-09-02T18:31:31.920Z,64.90
2022-09-02T18:34:21.038Z,65.20
2022-09-02T18:36:55.583Z,65.70
2022-09-02T18:39:37.823Z,66.20
2022-09-02T18:42:21.476Z,66.50
2022-09-02T18:44:59.960Z,66.80
2022-09-02T18:47:37.533Z,67.20
2022-09-02T18:50:07.015Z,67.50
2022-09-02T18:52:37.247Z,67.70
2022-09-02T18:55:15.564Z,68.10
2022-09-02T18:57:54.219Z,68.40
2022-09-02T19:00:22.682Z,68.70
2022-09-02T19:03:05.123Z,68.90
2022-09-02T19:05:36.173Z,69.30
2022-09-02T19:08:29.803Z,69.20
2022-09-02T19:11:08.913Z,69.80
2022-09-02T19:14:08.163Z,69.90
2022-09-02T19:16:38.126Z,70.30
2022-09-02T19:19:06.415Z,71.20
2022-09-02T19:21:51.162Z,70.60
2022-09-02T19:24:24.521Z,70.80
2022-09-02T19:26:56.353Z,71.10
2022-09-02T19:29:25.297Z,71.50
2022-09-02T19:31:54.550Z,71.60
2022-09-02T19:34:23.380Z,71.70
2022-09-02T19:36:52.490Z,72.00
2022-09-02T19:39:19.722Z,72.10
2022-09-02T19:41:49.022Z,72.30
2022-09-02T19:44:17.419Z,72.50
2022-09-02T19:49:35.188Z,72.30
2022-09-02T19:52:02.546Z,72.10
2022-09-02T19:54:30.282Z,72.40
2022-09-02T19:56:57.581Z,72.10
2022-09-02T19:59:26.551Z,72.30
2022-09-02T20:01:53.885Z,72.20
2022-09-02T20:04:21.291Z,72.30
2022-09-02T20:06:48.576Z,72.40
2022-09-02T20:09:15.867Z,72.90
2022-09-02T20:11:44.337Z,73.10
2022-09-02T20:14:11.586Z,73.10
2022-09-02T20:16:38.929Z,73.40
2022-09-02T20:19:06.643Z,73.50
2022-09-02T20:21:45.682Z,73.60
2022-09-02T20:24:18.953Z,75.00
2022-09-02T20:27:16.088Z,74.30
2022-09-02T20:29:45.988Z,74.60
2022-09-02T20:32:23.447Z,74.90
2022-09-02T20:35:02.514Z,75.30
2022-09-02T20:37:32.492Z,75.60
2022-09-02T20:40:23.278Z,76.20
2022-09-02T20:43:09.184Z,76.10
2022-09-02T20:45:44.363Z,76.40
2022-09-02T20:48:44.999Z,76.40
2022-09-02T20:51:20.637Z,76.40
2022-09-02T20:54:17.472Z,76.70
2022-09-02T20:57:23.117Z,77.40
2022-09-02T21:00:05.660Z,78.40
2022-09-02T21:03:00.768Z,78.80
2022-09-02T21:05:40.685Z,79.20
2022-09-02T21:08:22.057Z,79.30
2022-09-02T21:10:54.563Z,79.20
2022-09-02T21:13:56.343Z,79.50
2022-09-02T21:16:32.248Z,79.50
2022-09-02T21:19:13.666Z,80.40
2022-09-02T21:21:55.427Z,80.60
2022-09-02T21:24:32.336Z,80.70
2022-09-02T21:27:02.539Z,80.90
2022-09-02T21:29:40.638Z,81.00
2022-09-02T21:32:17.425Z,81.00
2022-09-02T21:35:05.703Z,80.90
2022-09-02T21:37:36.582Z,80.90
2022-09-02T21:40:07.477Z,80.90
2022-09-02T21:43:09.447Z,81.40
2022-09-02T21:45:45.259Z,81.50
2022-09-02T21:48:55.235Z,81.20
2022-09-02T21:51:38.815Z,80.80
2022-09-02T21:54:18.217Z,80.40
2022-09-02T21:57:14.628Z,80.40
2022-09-02T22:00:06.074Z,80.20
2022-09-02T22:02:57.758Z,80.20
2022-09-02T22:05:47.572Z,80.60
2022-09-02T22:08:39.677Z,80.50
2022-09-02T22:11:13.703Z,81.20
2022-09-02T22:13:41.869Z,81.70
2022-09-02T22:16:21.580Z,81.90
2022-09-02T22:19:03.492Z,82.00
2022-09-02T22:21:48.560Z,82.20
2022-09-02T22:24:22.790Z,81.80
2022-09-02T22:27:11.401Z,81.70
2022-09-02T22:30:10.956Z,81.60
2022-09-02T22:32:49.974Z,81.40
2022-09-02T22:35:31.507Z,81.50
2022-09-02T22:38:26.462Z,81.40
2022-09-02T22:41:01.118Z,81.40
2022-09-02T22:43:41.479Z,81.70
2022-09-02T22:46:55.919Z,82.20
2022-09-02T22:49:49.310Z,82.50
2022-09-02T22:52:40.205Z,83.00
2022-09-02T22:55:14.146Z,83.20
2022-09-02T22:58:04.226Z,83.60
2022-09-02T23:00:40.670Z,84.00
2022-09-02T23:03:14.441Z,84.50
2022-09-02T23:05:49.392Z,84.50
2022-09-02T23:08:21.945Z,84.90
2022-09-02T23:11:06.697Z,85.30
2022-09-02T23:13:53.666Z,85.70
2022-09-02T23:16:39.730Z,85.80
2022-09-02T23:19:25.266Z,86.30
2022-09-02T23:22:12.002Z,86.20
2022-09-02T23:24:46.053Z,86.30
2022-09-02T23:27:55.839Z,86.60
2022-09-02T23:30:23.102Z,86.70
2022-09-02T23:33:05.659Z,87.10
2022-09-02T23:35:46.026Z,86.70
2022-09-02T23:38:41.084Z,86.70
2022-09-02T23:41:11.924Z,86.40
2022-09-02T23:43:41.751Z,86.20
2022-09-02T23:46:30.886Z,86.10
2022-09-02T23:49:18.778Z,85.80
2022-09-02T23:51:56.045Z,85.80
2022-09-02T23:54:41.146Z,85.60
2022-09-02T23:57:21.962Z,85.60
